createdAt,value
2022-11-05T00:00:51.759Z,7.38
2022-11-05T00:03:38.057Z,6.90
2022-11-05T00:06:27.792Z,6.00
2022-11-05T00:09:14.365Z,6.20
2022-11-05T00:12:00.434Z,7.78
2022-11-05T00:14:46.439Z,7.00
2022-11-05T00:17:13.922Z,6.40
2022-11-05T00:19:41.387Z,7.72
2022-11-05T00:22:27.355Z,6.93
2022-11-05T00:25:13.227Z,7.13
2022-11-05T00:27:41.444Z,6.90
2022-11-05T00:30:09.774Z,6.87
2022-11-05T00:32:37.805Z,6.93
2022-11-05T00:35:07.446Z,6.07
2022-11-05T00:37:35.753Z,6.13
2022-11-05T00:40:04.436Z,6.38
2022-11-05T00:42:50.575Z,4.50
2022-11-05T00:45:18.282Z,5.80
2022-11-05T00:48:04.953Z,3.30
2022-11-05T00:50:33.703Z,3.80
2022-11-05T00:53:01.933Z,3.03
2022-11-05T00:55:38.448Z,2.67
2022-11-05T00:58:23.959Z,3.00
2022-11-05T01:00:54.213Z,3.20
2022-11-05T01:03:24.511Z,2.70
2022-11-05T01:05:55.130Z,2.92
2022-11-05T01:08:24.875Z,2.53
2022-11-05T01:10:57.761Z,2.88
2022-11-05T01:13:28.521Z,3.17
2022-11-05T01:15:56.552Z,3.40
2022-11-05T01:18:25.439Z,3.80
2022-11-05T01:20:53.196Z,3.00
2022-11-05T01:23:21.235Z,2.67
2022-11-05T01:25:49.136Z,2.45
2022-11-05T01:28:16.795Z,2.25
2022-11-05T01:30:44.436Z,2.97
2022-11-05T01:33:12.144Z,2.93
2022-11-05T01:35:40.046Z,2.55
2022-11-05T01:38:07.526Z,2.85
2022-11-05T01:40:35.140Z,2.88
2022-11-05T01:43:02.636Z,2.10
2022-11-05T01:45:30.182Z,2.77
2022-11-05T01:48:23.510Z,2.22
2022-11-05T01:50:56.942Z,2.10
2022-11-05T01:53:36.271Z,2.30
2022-11-05T01:56:29.633Z,1.98
2022-11-05T01:59:09.354Z,2.00
2022-11-05T02:01:37.020Z,1.63
2022-11-05T02:04:09.568Z,1.48
2022-11-05T02:06:46.064Z,1.38
2022-11-05T02:09:18.777Z,1.35
2022-11-05T02:11:46.932Z,1.47
2022-11-05T02:14:14.393Z,1.60
2022-11-05T02:16:49.447Z,1.70
2022-11-05T02:19:57.372Z,1.70
2022-11-05T02:23:02.273Z,1.88
2022-11-05T02:26:11.903Z,1.53
2022-11-05T02:29:04.036Z,1.80
2022-11-05T02:31:34.224Z,1.60
2022-11-05T02:34:33.124Z,1.67
2022-11-05T02:37:15.359Z,1.55
2022-11-05T02:39:54.462Z,1.53
2022-11-05T02:42:29.917Z,1.90
2022-11-05T02:45:05.300Z,1.42
2022-11-05T02:47:45.892Z,1.48
2022-11-05T02:50:25.020Z,1.60
2022-11-05T02:53:23.886Z,1.60
2022-11-05T02:56:04.335Z,1.70
2022-11-05T02:58:33.809Z,1.85
2022-11-05T03:01:06.848Z,1.73
2022-11-05T03:03:39.063Z,1.70
2022-11-05T03:06:34.038Z,1.70
2022-11-05T03:09:15.470Z,1.67
2022-11-05T03:11:51.483Z,1.52
2022-11-05T03:14:50.209Z,1.80
2022-11-05T03:17:17.817Z,1.70
2022-11-05T03:19:53.855Z,1.80
2022-11-05T03:22:26.130Z,1.55
2022-11-05T03:25:02.433Z,1.73
2022-11-05T03:27:34.649Z,1.55
2022-11-05T03:30:06.856Z,2.08
2022-11-05T03:32:38.631Z,2.00
2022-11-05T03:35:12.971Z,2.08
2022-11-05T03:37:43.567Z,2.00
2022-11-05T03:40:13.779Z,1.85
2022-11-05T03:42:45.308Z,1.80
2022-11-05T03:45:20.774Z,1.90
2022-11-05T03:47:51.275Z,1.80
2022-11-05T03:50:29.028Z,1.90
2022-11-05T03:53:19.955Z,1.92
2022-11-05T03:55:50.893Z,1.77
2022-11-05T03:58:21.756Z,1.87
2022-11-05T04:00:50.866Z,2.00
2022-11-05T04:03:18.575Z,1.90
2022-11-05T04:06:06.359Z,1.92
2022-11-05T04:08:52.756Z,1.95
2022-11-05T04:11:38.826Z,2.20
2022-11-05T04:14:06.393Z,2.00
2022-11-05T04:16:52.543Z,2.13
2022-11-05T04:19:40.078Z,2.20
2022-11-05T04:22:26.473Z,2.00
2022-11-05T04:24:54.036Z,2.50
2022-11-05T04:27:21.529Z,2.58
2022-11-05T04:30:07.549Z,1.95
2022-11-05T04:32:35.056Z,2.03
2022-11-05T04:35:02.677Z,2.00
2022-11-05T04:37:30.266Z,1.80
2022-11-05T04:39:57.728Z,1.70
2022-11-05T04:42:25.382Z,2.00
2022-11-05T04:44:52.873Z,1.90
2022-11-05T04:47:20.340Z,1.42
2022-11-05T04:49:47.807Z,1.60
2022-11-05T04:52:15.463Z,1.38
2022-11-05T04:54:42.940Z,1.20
2022-11-05T04:57:10.399Z,1.30
2022-11-05T04:59:37.976Z,1.23
2022-11-05T05:02:05.632Z,1.33
2022-11-05T05:04:33.294Z,1.30
2022-11-05T05:07:00.812Z,1.20
2022-11-05T05:09:28.312Z,1.40
2022-11-05T05:11:55.815Z,1.30
2022-11-05T05:14:23.376Z,0.97
2022-11-05T05:16:50.885Z,1.10
2022-11-05T05:19:18.408Z,1.00
2022-11-05T05:21:45.994Z,1.00
2022-11-05T05:24:17.469Z,0.95
2022-11-05T05:26:50.266Z,1.00
2022-11-05T05:29:18.601Z,0.93
2022-11-05T05:31:46.149Z,0.80
2022-11-05T05:34:14.879Z,0.80
2022-11-05T05:36:42.314Z,1.30
2022-11-05T05:39:11.133Z,1.00
2022-11-05T05:41:38.835Z,0.95
2022-11-05T05:44:06.760Z,0.60
2022-11-05T05:46:34.294Z,0.70
2022-11-05T05:49:01.894Z,0.88
2022-11-05T05:51:29.371Z,0.63
2022-11-05T05:53:56.884Z,0.88
2022-11-05T05:56:24.392Z,0.75
2022-11-05T05:58:52.350Z,0.95
2022-11-05T06:01:20.314Z,0.88
2022-11-05T06:03:48.994Z,0.80
2022-11-05T06:06:21.207Z,0.82
2022-11-05T06:08:49.171Z,0.77
2022-11-05T06:11:16.814Z,0.90
2022-11-05T06:13:44.511Z,1.10
2022-11-05T06:16:12.066Z,1.03
2022-11-05T06:18:39.722Z,0.90
2022-11-05T06:21:09.963Z,0.90
2022-11-05T06:23:39.895Z,0.80
2022-11-05T06:26:13.427Z,1.17
2022-11-05T06:28:42.418Z,1.20
2022-11-05T06:31:10.909Z,1.00
2022-11-05T06:33:39.763Z,1.27
2022-11-05T06:36:08.888Z,1.02
2022-11-05T06:38:36.940Z,1.95
2022-11-05T06:41:10.044Z,2.50
2022-11-05T06:43:38.741Z,2.63
2022-11-05T06:46:06.821Z,2.78
2022-11-05T06:48:34.397Z,2.88
2022-11-05T06:51:02.578Z,3.17
2022-11-05T06:53:30.712Z,3.00
2022-11-05T06:56:01.387Z,2.97
2022-11-05T06:58:29.601Z,3.10
2022-11-05T07:01:01.512Z,3.30
2022-11-05T07:03:29.651Z,3.45
2022-11-05T07:06:00.443Z,3.63
2022-11-05T07:08:32.391Z,3.45
2022-11-05T07:11:00.209Z,3.30
2022-11-05T07:13:28.027Z,3.42
2022-11-05T07:15:56.083Z,3.40
2022-11-05T07:18:24.042Z,3.40
2022-11-05T07:20:51.634Z,2.83
2022-11-05T07:23:19.197Z,2.85
2022-11-05T07:25:46.883Z,2.90
2022-11-05T07:28:14.637Z,2.40
2022-11-05T07:30:42.279Z,2.70
2022-11-05T07:33:10.297Z,2.67
2022-11-05T07:35:38.059Z,2.60
2022-11-05T07:38:05.629Z,2.20
2022-11-05T07:40:33.135Z,2.25
2022-11-05T07:43:01.790Z,2.50
2022-11-05T07:45:31.317Z,1.75
2022-11-05T07:48:01.358Z,2.20
2022-11-05T07:50:32.129Z,1.85
2022-11-05T07:53:01.386Z,2.05
2022-11-05T07:55:30.628Z,2.00
2022-11-05T07:57:59.068Z,2.08
2022-11-05T08:00:27.807Z,1.80
2022-11-05T08:03:07.665Z,1.70
2022-11-05T08:05:47.680Z,1.85
2022-11-05T08:08:19.836Z,1.63
2022-11-05T08:10:47.439Z,1.48
2022-11-05T08:13:15.528Z,1.60
2022-11-05T08:15:43.696Z,1.60
2022-11-05T08:18:14.810Z,1.58
2022-11-05T08:20:43.713Z,1.30
2022-11-05T08:23:11.896Z,1.30
2022-11-05T08:25:40.271Z,1.40
2022-11-05T08:28:13.590Z,1.30
2022-11-05T08:30:41.247Z,1.50
2022-11-05T08:33:13.234Z,1.47
2022-11-05T08:35:41.977Z,1.42
2022-11-05T08:38:15.992Z,1.50
2022-11-05T08:40:45.478Z,1.70
2022-11-05T08:43:14.772Z,1.60
2022-11-05T08:45:42.755Z,1.60
2022-11-05T08:48:15.613Z,1.70
2022-11-05T08:50:44.463Z,1.83
2022-11-05T08:53:12.595Z,1.80
2022-11-05T08:55:40.430Z,1.83
2022-11-05T08:58:12.690Z,1.77
2022-11-05T09:00:40.870Z,2.00
2022-11-05T09:03:09.942Z,2.00
2022-11-05T09:05:40.145Z,2.38
2022-11-05T09:08:32.772Z,2.83
2022-11-05T09:11:00.951Z,2.50
2022-11-05T09:13:28.829Z,2.80
2022-11-05T09:15:58.907Z,2.63
2022-11-05T09:18:26.656Z,2.47
2022-11-05T09:20:54.307Z,2.40
2022-11-05T09:23:22.197Z,2.33
2022-11-05T09:25:49.899Z,2.35
2022-11-05T09:28:19.105Z,2.10
2022-11-05T09:31:12.335Z,2.38
2022-11-05T09:33:41.095Z,2.58
2022-11-05T09:36:08.985Z,2.60
2022-11-05T09:38:37.088Z,2.47
2022-11-05T09:41:24.129Z,2.42
2022-11-05T09:43:56.578Z,2.33
2022-11-05T09:46:27.318Z,2.50
2022-11-05T09:49:06.196Z,2.73
2022-11-05T09:51:36.202Z,2.25
2022-11-05T09:54:05.643Z,2.00
2022-11-05T09:56:37.288Z,2.00
2022-11-05T09:59:17.513Z,2.65
2022-11-05T10:01:46.162Z,2.37
2022-11-05T10:04:18.313Z,1.90
2022-11-05T10:07:05.504Z,2.10
2022-11-05T10:09:56.045Z,2.08
2022-11-05T10:12:34.599Z,2.10
2022-11-05T10:15:21.706Z,2.77
2022-11-05T10:17:58.662Z,2.45
2022-11-05T10:20:38.343Z,2.90
2022-11-05T10:23:17.887Z,2.90
2022-11-05T10:25:47.998Z,3.10
2022-11-05T10:28:20.970Z,3.73
2022-11-05T10:30:55.745Z,3.47
2022-11-05T10:33:30.910Z,3.65
2022-11-05T10:36:04.683Z,4.10
2022-11-05T10:38:33.366Z,3.60
2022-11-05T10:41:07.230Z,3.43
2022-11-05T10:43:43.264Z,3.67
2022-11-05T10:46:32.719Z,3.58
2022-11-05T10:49:20.649Z,3.60
2022-11-05T10:51:55.733Z,3.42
2022-11-05T10:54:26.460Z,3.50
2022-11-05T10:56:54.037Z,3.30
2022-11-05T10:59:30.260Z,2.90
2022-11-05T11:02:01.159Z,2.92
2022-11-05T11:04:36.540Z,2.47
2022-11-05T11:07:05.746Z,2.40
2022-11-05T11:09:36.637Z,2.40
2022-11-05T11:12:19.699Z,2.20
2022-11-05T11:15:28.247Z,2.10
2022-11-05T11:17:56.678Z,2.30
2022-11-05T11:20:28.836Z,2.63
2022-11-05T11:23:17.045Z,2.45
2022-11-05T11:26:03.781Z,2.22
2022-11-05T11:28:46.094Z,2.10
2022-11-05T11:31:15.164Z,2.45
2022-11-05T11:33:47.110Z,2.50
2022-11-05T11:36:18.703Z,2.20
2022-11-05T11:38:46.426Z,2.47
2022-11-05T11:41:30.522Z,2.28
2022-11-05T11:44:24.693Z,2.53
2022-11-05T11:46:55.595Z,2.37
2022-11-05T11:49:53.530Z,2.63
2022-11-05T11:52:36.728Z,2.70
2022-11-05T11:55:22.933Z,2.30
2022-11-05T11:57:53.389Z,2.80
2022-11-05T12:00:24.127Z,2.60
2022-11-05T12:03:22.685Z,2.40
2022-11-05T12:05:53.259Z,2.50
2022-11-05T12:09:05.335Z,2.60
2022-11-05T12:11:44.545Z,2.40
2022-11-05T12:14:33.071Z,2.50
2022-11-05T12:17:15.741Z,2.45
2022-11-05T12:19:49.304Z,2.35
2022-11-05T12:22:38.290Z,2.50
2022-11-05T12:25:33.375Z,2.75
2022-11-05T12:28:13.890Z,2.23
2022-11-05T12:30:54.066Z,2.40
2022-11-05T12:33:42.360Z,2.13
2022-11-05T12:36:15.643Z,2.22
2022-11-05T12:38:51.822Z,2.13
2022-11-05T12:41:39.393Z,2.07
2022-11-05T12:44:44.358Z,2.10
2022-11-05T12:47:24.809Z,1.98
2022-11-05T12:50:10.080Z,1.70
2022-11-05T12:53:14.904Z,1.70
2022-11-05T12:55:49.563Z,1.50
2022-11-05T12:58:40.035Z,1.20
2022-11-05T13:01:13.479Z,1.55
2022-11-05T13:03:53.427Z,1.60
2022-11-05T13:06:40.354Z,1.50
2022-11-05T13:09:20.105Z,1.60
2022-11-05T13:11:57.357Z,1.55
2022-11-05T13:14:30.834Z,1.58
2022-11-05T13:17:13.211Z,1.42
2022-11-05T13:19:57.118Z,1.05
2022-11-05T13:22:39.971Z,1.50
2022-11-05T13:25:11.029Z,1.80
2022-11-05T13:27:46.147Z,2.67
2022-11-05T13:30:26.442Z,2.38
2022-11-05T13:33:04.303Z,3.70
2022-11-05T13:35:41.250Z,3.13
2022-11-05T13:38:36.461Z,2.10
2022-11-05T13:41:34.110Z,1.50
2022-11-05T13:44:35.737Z,1.65
2022-11-05T13:47:09.354Z,1.63
2022-11-05T13:50:06.854Z,2.57
2022-11-05T13:53:04.731Z,2.10
2022-11-05T13:56:03.265Z,2.17
2022-11-05T13:58:55.950Z,1.65
2022-11-05T14:01:42.879Z,2.00
2022-11-05T14:04:25.557Z,2.10
2022-11-05T14:06:54.258Z,1.95
2022-11-05T14:09:27.553Z,2.72
2022-11-05T14:11:57.409Z,3.13
2022-11-05T14:14:30.859Z,2.33
2022-11-05T14:17:07.221Z,1.80
2022-11-05T14:20:06.946Z,2.17
2022-11-05T14:22:34.482Z,1.60
2022-11-05T14:25:24.372Z,1.92
2022-11-05T14:27:52.659Z,2.47
2022-11-05T14:30:44.425Z,2.50
2022-11-05T14:33:24.342Z,3.15
2022-11-05T14:35:53.690Z,2.10
2022-11-05T14:38:28.416Z,1.60
2022-11-05T14:41:01.557Z,1.70
2022-11-05T14:43:33.641Z,0.90
2022-11-05T14:46:06.207Z,1.08
2022-11-05T14:48:44.261Z,0.85
2022-11-05T14:51:40.627Z,0.90
2022-11-05T14:54:25.178Z,1.10
2022-11-05T14:56:58.748Z,0.90
2022-11-05T14:59:28.848Z,1.38
2022-11-05T15:02:01.745Z,1.00
2022-11-05T15:04:33.654Z,1.17
2022-11-05T15:07:04.888Z,1.10
2022-11-05T15:09:38.296Z,1.20
2022-11-05T15:12:09.625Z,1.45
2022-11-05T15:15:00.835Z,0.95
2022-11-05T15:17:38.759Z,1.30
2022-11-05T15:20:41.575Z,1.35
2022-11-05T15:23:14.738Z,1.57
2022-11-05T15:25:53.335Z,1.15
2022-11-05T15:28:38.423Z,1.55
2022-11-05T15:31:26.831Z,1.30
2022-11-05T15:34:20.513Z,1.08
2022-11-05T15:37:00.201Z,1.00
2022-11-05T15:39:38.398Z,2.10
2022-11-05T15:42:13.435Z,1.40
2022-11-05T15:44:45.291Z,1.77
2022-11-05T15:47:17.526Z,1.90
2022-11-05T15:49:48.368Z,2.20
2022-11-05T15:52:18.074Z,2.67
2022-11-05T15:54:45.893Z,2.13
2022-11-05T15:57:29.218Z,2.10
2022-11-05T15:59:56.866Z,2.55
2022-11-05T16:02:27.064Z,2.23
2022-11-05T16:04:55.296Z,2.88
2022-11-05T16:07:23.376Z,2.38
2022-11-05T16:09:57.138Z,2.42
2022-11-05T16:12:30.561Z,1.80
2022-11-05T16:15:10.598Z,2.40
2022-11-05T16:17:44.227Z,4.85
2022-11-05T16:20:18.194Z,4.65
2022-11-05T16:22:51.701Z,4.28
2022-11-05T16:25:31.372Z,4.25
2022-11-05T16:28:00.671Z,5.60
2022-11-05T16:30:31.538Z,2.65
2022-11-05T16:33:08.044Z,2.85
2022-11-05T16:35:40.319Z,2.60
2022-11-05T16:38:11.922Z,2.47
2022-11-05T16:40:39.624Z,1.90
2022-11-05T16:43:18.999Z,1.88
2022-11-05T16:45:46.839Z,2.10
2022-11-05T16:48:15.258Z,2.45
2022-11-05T16:50:45.399Z,2.85
2022-11-05T16:53:13.661Z,2.70
2022-11-05T16:55:43.294Z,3.17
2022-11-05T16:58:23.428Z,3.20
2022-11-05T17:00:55.371Z,2.20
2022-11-05T17:03:22.927Z,3.08
2022-11-05T17:05:50.500Z,3.00
2022-11-05T17:08:18.191Z,2.97
2022-11-05T17:10:45.970Z,2.30
2022-11-05T17:13:16.372Z,1.67
2022-11-05T17:15:46.885Z,1.80
2022-11-05T17:18:18.526Z,2.50
2022-11-05T17:20:49.842Z,5.95
2022-11-05T17:23:20.118Z,10.95
2022-11-05T17:25:51.081Z,7.32
2022-11-05T17:28:19.788Z,4.38
2022-11-05T17:30:54.293Z,4.17
2022-11-05T17:33:23.392Z,4.93
2022-11-05T17:35:52.872Z,3.30
2022-11-05T17:38:22.221Z,3.15
2022-11-05T17:40:50.496Z,3.65
2022-11-05T17:43:18.931Z,3.80
2022-11-05T17:45:49.852Z,3.80
2022-11-05T17:48:18.817Z,3.42
2022-11-05T17:50:48.646Z,3.55
2022-11-05T17:53:18.785Z,4.15
2022-11-05T17:55:47.232Z,5.23
2022-11-05T17:58:14.958Z,4.55
2022-11-05T18:00:44.327Z,4.40
2022-11-05T18:03:13.054Z,5.90
2022-11-05T18:05:41.678Z,6.93
2022-11-05T18:08:09.979Z,7.83
2022-11-05T18:10:38.672Z,7.82
2022-11-05T18:13:06.893Z,6.40
2022-11-05T18:15:36.407Z,6.13
2022-11-05T18:18:04.363Z,4.18
2022-11-05T18:20:32.964Z,3.90
2022-11-05T18:23:00.579Z,3.78
2022-11-05T18:25:28.081Z,3.47
2022-11-05T18:27:56.089Z,3.60
2022-11-05T18:30:23.661Z,4.00
2022-11-05T18:32:51.332Z,3.97
2022-11-05T18:35:18.870Z,4.35
2022-11-05T18:37:46.457Z,5.30
2022-11-05T18:40:14.098Z,4.55
2022-11-05T18:42:41.723Z,5.38
2022-11-05T18:45:10.415Z,5.13
2022-11-05T18:47:38.522Z,6.38
2022-11-05T18:50:07.812Z,6.82
2022-11-05T18:52:35.641Z,7.22
2022-11-05T18:55:03.488Z,9.52
2022-11-05T18:57:33.570Z,11.60
2022-11-05T19:00:01.140Z,16.80
2022-11-05T19:02:28.801Z,17.92
2022-11-05T19:05:22.533Z,18.92
2022-11-05T19:07:44.340Z,16.83
2022-11-05T19:10:11.889Z,15.23
2022-11-05T19:12:40.529Z,19.55
2022-11-05T19:15:08.933Z,19.17
2022-11-05T19:17:36.838Z,18.88
2022-11-05T19:20:06.939Z,15.85
2022-11-05T19:22:34.537Z,15.63
2022-11-05T19:25:02.048Z,17.05
2022-11-05T19:27:29.643Z,18.10
2022-11-05T19:29:57.320Z,20.77
2022-11-05T19:32:24.827Z,19.95
2022-11-05T19:34:52.323Z,21.43
2022-11-05T19:37:20.095Z,20.65
2022-11-05T19:39:47.570Z,23.00
2022-11-05T19:42:15.080Z,24.45
2022-11-05T19:44:43.814Z,24.80
2022-11-05T19:47:11.372Z,41.17
2022-11-05T19:49:38.889Z,32.13
2022-11-05T19:52:06.858Z,25.92
2022-11-05T19:54:36.028Z,28.55
2022-11-05T19:57:03.690Z,30.80
2022-11-05T19:59:31.321Z,31.97
2022-11-05T20:01:58.990Z,33.28
2022-11-05T20:04:26.726Z,32.20
2022-11-05T20:06:54.254Z,32.78
2022-11-05T20:09:23.209Z,34.78
2022-11-05T20:11:54.368Z,35.70
2022-11-05T20:14:23.748Z,35.80
2022-11-05T20:16:51.336Z,40.65
2022-11-05T20:19:21.145Z,39.35
2022-11-05T20:21:48.738Z,33.42
2022-11-05T20:24:23.794Z,33.23
2022-11-05T20:26:56.335Z,25.73
2022-11-05T20:29:30.526Z,22.63
2022-11-05T20:32:02.362Z,22.77
2022-11-05T20:34:30.820Z,21.00
2022-11-05T20:36:58.429Z,22.00
2022-11-05T20:39:26.069Z,19.17
2022-11-05T20:41:53.627Z,20.55
2022-11-05T20:44:21.172Z,26.02
2022-11-05T20:46:48.845Z,25.88
2022-11-05T20:49:20.044Z,25.60
2022-11-05T20:51:50.203Z,26.50
2022-11-05T20:54:17.814Z,30.80
2022-11-05T20:56:45.439Z,34.17
2022-11-05T20:59:12.939Z,35.25
2022-11-05T21:01:40.697Z,34.77
2022-11-05T21:04:08.408Z,31.90
2022-11-05T21:06:36.106Z,30.23
2022-11-05T21:09:04.327Z,30.98
2022-11-05T21:11:51.869Z,24.73
2022-11-05T21:14:19.695Z,25.13
2022-11-05T21:16:47.205Z,20.88
2022-11-05T21:19:15.747Z,22.08
2022-11-05T21:21:43.268Z,15.32
2022-11-05T21:24:10.840Z,12.20
2022-11-05T21:26:38.359Z,13.83
2022-11-05T21:29:07.727Z,13.05
2022-11-05T21:31:38.498Z,12.32
2022-11-05T21:34:06.134Z,11.63
2022-11-05T21:36:34.041Z,13.50
2022-11-05T21:39:02.042Z,12.27
2022-11-05T21:41:29.732Z,12.43
2022-11-05T21:43:57.444Z,11.95
2022-11-05T21:46:25.214Z,12.25
2022-11-05T21:48:53.029Z,11.57
2022-11-05T21:51:39.205Z,11.00
2022-11-05T21:54:25.620Z,13.07
2022-11-05T21:57:11.731Z,13.25
2022-11-05T21:59:48.052Z,12.25
2022-11-05T22:02:18.885Z,12.50
2022-11-05T22:04:50.235Z,11.70
2022-11-05T22:07:24.674Z,10.80
2022-11-05T22:09:52.490Z,9.07
2022-11-05T22:12:20.329Z,9.27
2022-11-05T22:14:47.855Z,11.07
2022-11-05T22:17:15.730Z,7.00
2022-11-05T22:19:43.332Z,7.45
2022-11-05T22:22:11.403Z,6.90
2022-11-05T22:24:40.175Z,4.72
2022-11-05T22:27:15.436Z,3.97
2022-11-05T22:29:43.325Z,6.00
2022-11-05T22:32:11.401Z,5.07
2022-11-05T22:34:39.149Z,4.22
2022-11-05T22:37:06.924Z,4.07
2022-11-05T22:39:34.477Z,3.28
2022-11-05T22:42:05.704Z,3.60
2022-11-05T22:44:36.868Z,4.72
2022-11-05T22:47:04.892Z,3.63
2022-11-05T22:49:33.310Z,4.00
2022-11-05T22:52:00.866Z,4.72
2022-11-05T22:54:28.452Z,2.90
2022-11-05T22:56:55.897Z,3.67
2022-11-05T22:59:23.532Z,3.35
2022-11-05T23:01:51.159Z,4.18
2022-11-05T23:04:18.731Z,4.28
2022-11-05T23:07:04.873Z,3.53
2022-11-05T23:09:53.061Z,4.05
2022-11-05T23:12:31.872Z,3.20
2022-11-05T23:15:00.885Z,3.55
2022-11-05T23:17:47.514Z,3.53
2022-11-05T23:20:37.257Z,3.57
2022-11-05T23:23:27.909Z,3.20
2022-11-05T23:26:21.656Z,2.40
2022-11-05T23:28:49.684Z,2.20
2022-11-05T23:31:35.608Z,2.80
2022-11-05T23:34:03.207Z,2.53
2022-11-05T23:36:49.068Z,2.45
2022-11-05T23:39:16.734Z,2.17
2022-11-05T23:42:02.685Z,1.83
2022-11-05T23:44:49.084Z,2.90
2022-11-05T23:47:35.379Z,3.10
2022-11-05T23:50:02.957Z,3.40
2022-11-05T23:52:30.476Z,3.15
2022-11-05T23:54:57.985Z,2.85
2022-11-05T23:57:25.530Z,2.70
2022-11-05T23:59:53.103Z,2.80
